createdAt,value
2022-10-14T00:00:09.527Z,18.26
2022-10-14T00:02:37.223Z,17.72
2022-10-14T00:05:05.402Z,17.90
2022-10-14T00:07:33.060Z,17.91
2022-10-14T00:10:02.177Z,17.88
2022-10-14T00:12:30.312Z,17.80
2022-10-14T00:14:58.021Z,17.91
2022-10-14T00:17:46.150Z,17.71
2022-10-14T00:20:13.870Z,17.81
2022-10-14T00:22:44.358Z,17.93
2022-10-14T00:25:13.463Z,18.03
2022-10-14T00:27:41.105Z,17.93
2022-10-14T00:30:09.983Z,17.78
2022-10-14T00:32:37.658Z,17.85
2022-10-14T00:35:06.370Z,17.87
2022-10-14T00:37:34.022Z,17.84
2022-10-14T00:40:01.716Z,17.88
2022-10-14T00:42:33.518Z,17.66
2022-10-14T00:45:04.896Z,17.68
2022-10-14T00:47:33.493Z,17.83
2022-10-14T00:50:01.809Z,17.88
2022-10-14T00:52:29.847Z,17.70
2022-10-14T00:55:03.018Z,17.74
2022-10-14T00:57:32.896Z,17.86
2022-10-14T01:00:08.275Z,17.75
2022-10-14T01:02:36.062Z,17.90
2022-10-14T01:05:05.238Z,17.83
2022-10-14T01:07:41.906Z,17.89
2022-10-14T01:10:15.775Z,17.96
2022-10-14T01:12:56.786Z,17.99
2022-10-14T01:15:31.092Z,17.99
2022-10-14T01:18:12.451Z,18.02
2022-10-14T01:20:54.528Z,18.01
2022-10-14T01:23:50.676Z,17.98
2022-10-14T01:26:44.370Z,17.92
2022-10-14T01:29:25.717Z,17.92
2022-10-14T01:32:03.166Z,17.91
2022-10-14T01:34:37.460Z,17.92
2022-10-14T01:37:11.622Z,17.87
2022-10-14T01:39:45.614Z,17.77
2022-10-14T01:42:17.738Z,17.77
2022-10-14T01:44:51.270Z,17.77
2022-10-14T01:47:22.490Z,17.74
2022-10-14T01:49:55.101Z,17.77
2022-10-14T01:52:28.016Z,17.80
2022-10-14T01:55:00.886Z,17.79
2022-10-14T01:57:33.711Z,17.83
2022-10-14T02:00:03.098Z,17.84
2022-10-14T02:02:32.125Z,17.82
2022-10-14T02:04:59.961Z,17.83
2022-10-14T02:07:33.469Z,17.78
2022-10-14T02:10:10.330Z,17.76
2022-10-14T02:12:46.424Z,17.77
2022-10-14T02:15:21.809Z,17.77
2022-10-14T02:17:55.690Z,17.77
2022-10-14T02:20:30.274Z,17.75
2022-10-14T02:23:01.642Z,17.74
2022-10-14T02:25:33.180Z,17.70
2022-10-14T02:28:03.408Z,17.68
2022-10-14T02:30:35.834Z,17.69
2022-10-14T02:33:06.344Z,17.64
2022-10-14T02:35:35.950Z,17.66
2022-10-14T02:38:05.338Z,17.70
2022-10-14T02:40:38.579Z,17.66
2022-10-14T02:43:07.968Z,17.69
2022-10-14T02:45:35.949Z,17.43
2022-10-14T02:48:05.693Z,17.41
2022-10-14T02:50:33.703Z,17.55
2022-10-14T02:53:01.457Z,17.62
2022-10-14T02:55:29.227Z,17.45
2022-10-14T02:57:56.966Z,17.33
2022-10-14T03:00:24.669Z,17.43
2022-10-14T03:02:52.413Z,17.47
2022-10-14T03:05:21.455Z,17.54
2022-10-14T03:07:49.170Z,17.45
2022-10-14T03:10:16.929Z,17.24
2022-10-14T03:12:44.660Z,17.40
2022-10-14T03:15:12.944Z,17.52
2022-10-14T03:17:40.618Z,17.54
2022-10-14T03:20:08.853Z,17.46
2022-10-14T03:22:37.969Z,17.14
2022-10-14T03:25:07.666Z,17.10
2022-10-14T03:27:35.336Z,17.18
2022-10-14T03:30:03.079Z,17.28
2022-10-14T03:32:30.814Z,17.04
2022-10-14T03:34:58.645Z,16.89
2022-10-14T03:37:26.497Z,17.09
2022-10-14T03:39:55.613Z,17.16
2022-10-14T03:42:23.597Z,17.10
2022-10-14T03:44:51.625Z,17.14
2022-10-14T03:47:19.435Z,17.29
2022-10-14T03:49:47.192Z,16.86
2022-10-14T03:52:14.866Z,16.88
2022-10-14T03:54:42.710Z,16.94
2022-10-14T03:57:11.746Z,17.10
2022-10-14T03:59:39.767Z,16.99
2022-10-14T04:02:07.515Z,17.22
2022-10-14T04:04:35.332Z,16.84
2022-10-14T04:07:03.077Z,17.03
2022-10-14T04:09:30.775Z,17.08
2022-10-14T04:11:58.521Z,17.10
2022-10-14T04:14:27.786Z,17.18
2022-10-14T04:16:55.476Z,17.24
2022-10-14T04:19:23.246Z,17.26
2022-10-14T04:21:50.924Z,17.32
2022-10-14T04:24:18.726Z,17.31
2022-10-14T04:26:46.435Z,17.33
2022-10-14T04:29:14.333Z,17.34
2022-10-14T04:31:43.413Z,17.27
2022-10-14T04:34:11.380Z,17.30
2022-10-14T04:36:39.579Z,17.31
2022-10-14T04:39:07.603Z,17.33
2022-10-14T04:41:35.500Z,17.35
2022-10-14T04:44:03.189Z,17.37
2022-10-14T04:46:31.451Z,17.29
2022-10-14T04:49:00.545Z,17.28
2022-10-14T04:51:28.428Z,17.29
2022-10-14T04:53:57.214Z,17.28
2022-10-14T04:56:24.953Z,17.26
2022-10-14T04:58:52.717Z,17.32
2022-10-14T05:01:20.406Z,17.26
2022-10-14T05:03:48.289Z,17.39
2022-10-14T05:06:17.411Z,17.35
2022-10-14T05:08:45.097Z,17.38
2022-10-14T05:11:13.431Z,17.36
2022-10-14T05:13:41.425Z,17.32
2022-10-14T05:16:09.522Z,17.35
2022-10-14T05:18:37.369Z,17.39
2022-10-14T05:21:05.272Z,17.40
2022-10-14T05:23:34.314Z,17.43
2022-10-14T05:26:01.992Z,17.35
2022-10-14T05:28:29.847Z,17.34
2022-10-14T05:30:57.906Z,17.14
2022-10-14T05:33:25.810Z,17.10
2022-10-14T05:35:58.995Z,17.04
2022-10-14T05:38:27.478Z,16.87
2022-10-14T05:40:57.580Z,16.80
2022-10-14T05:43:31.812Z,16.69
2022-10-14T05:46:00.116Z,16.79
2022-10-14T05:48:27.845Z,16.82
2022-10-14T05:50:55.602Z,16.80
2022-10-14T05:53:23.585Z,16.74
2022-10-14T05:55:51.326Z,16.79
2022-10-14T05:58:20.402Z,16.78
2022-10-14T06:00:48.127Z,16.77
2022-10-14T06:03:15.903Z,16.73
2022-10-14T06:05:43.748Z,16.56
2022-10-14T06:08:11.434Z,16.61
2022-10-14T06:10:39.147Z,16.59
2022-10-14T06:13:06.817Z,16.49
2022-10-14T06:15:37.710Z,16.44
2022-10-14T06:18:05.814Z,16.37
2022-10-14T06:20:33.897Z,16.40
2022-10-14T06:23:02.306Z,16.35
2022-10-14T06:25:30.410Z,16.41
2022-10-14T06:28:03.176Z,16.35
2022-10-14T06:30:30.907Z,16.31
2022-10-14T06:32:59.952Z,16.29
2022-10-14T06:35:27.695Z,16.24
2022-10-14T06:37:55.509Z,16.22
2022-10-14T06:40:23.261Z,16.23
2022-10-14T06:42:50.905Z,16.28
2022-10-14T06:45:18.772Z,16.20
2022-10-14T06:47:46.902Z,16.37
2022-10-14T06:50:16.161Z,16.33
2022-10-14T06:52:46.179Z,16.33
2022-10-14T06:55:14.432Z,16.31
2022-10-14T06:57:42.372Z,16.46
2022-10-14T07:00:11.158Z,16.52
2022-10-14T07:02:39.201Z,16.44
2022-10-14T07:05:07.614Z,16.42
2022-10-14T07:07:36.745Z,16.37
2022-10-14T07:10:04.961Z,16.41
2022-10-14T07:12:32.660Z,16.50
2022-10-14T07:15:00.476Z,16.58
2022-10-14T07:17:28.178Z,16.60
2022-10-14T07:19:55.893Z,16.56
2022-10-14T07:22:23.930Z,16.52
2022-10-14T07:24:53.326Z,16.40
2022-10-14T07:27:21.462Z,16.45
2022-10-14T07:29:49.401Z,16.45
2022-10-14T07:32:17.084Z,16.52
2022-10-14T07:34:44.817Z,16.70
2022-10-14T07:37:12.530Z,16.74
2022-10-14T07:39:40.562Z,16.73
2022-10-14T07:42:09.672Z,16.74
2022-10-14T07:44:39.633Z,16.77
2022-10-14T07:47:07.518Z,16.97
2022-10-14T07:49:35.285Z,17.04
2022-10-14T07:52:03.022Z,17.00
2022-10-14T07:54:32.426Z,17.07
2022-10-14T07:57:00.521Z,17.13
2022-10-14T07:59:29.726Z,17.14
2022-10-14T08:01:57.467Z,17.05
2022-10-14T08:04:25.742Z,17.09
2022-10-14T08:06:54.119Z,17.17
2022-10-14T08:09:22.380Z,17.30
2022-10-14T08:11:50.470Z,17.34
2022-10-14T08:14:18.302Z,17.39
2022-10-14T08:16:47.906Z,17.44
2022-10-14T08:19:15.690Z,17.48
2022-10-14T08:21:44.343Z,17.50
2022-10-14T08:24:12.705Z,17.62
2022-10-14T08:26:42.240Z,17.69
2022-10-14T08:29:12.510Z,17.71
2022-10-14T08:31:40.231Z,17.80
2022-10-14T08:34:11.070Z,17.87
2022-10-14T08:36:38.870Z,18.04
2022-10-14T08:39:07.551Z,18.14
2022-10-14T08:42:23.815Z,18.21
2022-10-14T08:44:56.574Z,18.21
2022-10-14T08:47:30.861Z,18.23
2022-10-14T08:50:03.683Z,18.37
2022-10-14T08:52:37.785Z,18.52
2022-10-14T08:55:20.477Z,18.64
2022-10-14T08:57:52.735Z,18.74
2022-10-14T09:00:21.463Z,18.78
2022-10-14T09:02:51.500Z,18.47
2022-10-14T09:05:23.402Z,18.89
2022-10-14T09:07:53.254Z,18.84
2022-10-14T09:10:28.229Z,19.03
2022-10-14T09:12:59.603Z,19.24
2022-10-14T09:15:33.658Z,19.47
2022-10-14T09:18:06.896Z,19.35
2022-10-14T09:20:35.923Z,19.40
2022-10-14T09:23:16.257Z,19.29
2022-10-14T09:25:52.526Z,18.82
2022-10-14T09:28:20.550Z,19.01
2022-10-14T09:30:48.363Z,19.16
2022-10-14T09:33:20.805Z,19.55
2022-10-14T09:35:50.329Z,19.23
2022-10-14T09:38:19.648Z,19.39
2022-10-14T09:40:50.517Z,19.37
2022-10-14T09:43:20.159Z,19.59
2022-10-14T09:45:55.110Z,19.66
2022-10-14T09:48:32.743Z,19.44
2022-10-14T09:51:04.041Z,19.73
2022-10-14T09:53:33.860Z,19.73
2022-10-14T09:56:03.879Z,19.72
2022-10-14T09:58:35.116Z,19.56
2022-10-14T10:01:03.806Z,19.51
2022-10-14T10:03:34.976Z,19.54
2022-10-14T10:06:07.954Z,19.87
2022-10-14T10:08:37.180Z,20.07
2022-10-14T10:11:08.832Z,19.73
2022-10-14T10:13:40.532Z,19.91
2022-10-14T10:16:19.813Z,19.87
2022-10-14T10:18:47.561Z,19.60
2022-10-14T10:21:21.080Z,19.52
2022-10-14T10:23:55.417Z,19.72
2022-10-14T10:26:27.042Z,19.79
2022-10-14T10:28:57.441Z,19.64
2022-10-14T10:31:51.553Z,20.02
2022-10-14T10:34:40.816Z,20.01
2022-10-14T10:37:23.243Z,20.20
2022-10-14T10:40:11.401Z,20.01
2022-10-14T10:42:49.539Z,20.26
2022-10-14T10:45:23.345Z,20.07
2022-10-14T10:47:59.518Z,20.03
2022-10-14T10:50:38.048Z,20.47
2022-10-14T10:53:29.410Z,20.53
2022-10-14T10:56:10.585Z,20.24
2022-10-14T10:58:57.524Z,19.78
2022-10-14T11:01:37.561Z,19.74
2022-10-14T11:04:19.891Z,19.96
2022-10-14T11:07:12.932Z,20.16
2022-10-14T11:10:07.733Z,19.96
2022-10-14T11:12:44.512Z,19.76
2022-10-14T11:15:26.482Z,20.27
2022-10-14T11:18:02.508Z,20.19
2022-10-14T11:20:43.348Z,20.16
2022-10-14T11:23:37.547Z,20.31
2022-10-14T11:26:20.774Z,19.63
2022-10-14T11:28:57.086Z,19.50
2022-10-14T11:31:33.362Z,19.42
2022-10-14T11:34:14.696Z,19.31
2022-10-14T11:36:55.142Z,19.65
2022-10-14T11:39:34.777Z,19.56
2022-10-14T11:42:16.220Z,19.71
2022-10-14T11:44:44.657Z,19.48
2022-10-14T11:47:16.902Z,19.98
2022-10-14T11:49:49.733Z,19.99
2022-10-14T11:52:24.104Z,19.77
2022-10-14T11:54:57.439Z,20.20
2022-10-14T11:57:32.781Z,20.14
2022-10-14T12:00:03.429Z,19.91
2022-10-14T12:02:41.927Z,19.91
2022-10-14T12:05:18.129Z,20.42
2022-10-14T12:07:57.780Z,20.09
2022-10-14T12:10:30.149Z,19.97
2022-10-14T12:13:01.303Z,20.17
2022-10-14T12:18:03.334Z,19.94
2022-10-14T12:20:38.786Z,20.10
2022-10-14T12:23:09.101Z,19.82
2022-10-14T12:25:42.818Z,20.36
2022-10-14T12:28:15.959Z,20.26
2022-10-14T12:30:43.802Z,20.37
2022-10-14T12:33:13.375Z,20.35
2022-10-14T12:35:50.461Z,20.83
2022-10-14T12:38:19.353Z,21.02
2022-10-14T12:40:48.328Z,19.94
2022-10-14T12:43:21.507Z,20.40
2022-10-14T12:46:03.856Z,20.08
2022-10-14T12:48:35.166Z,20.08
2022-10-14T12:51:15.190Z,20.09
2022-10-14T12:53:52.432Z,19.81
2022-10-14T12:56:31.580Z,19.94
2022-10-14T12:59:03.198Z,19.73
2022-10-14T13:01:35.330Z,19.67
2022-10-14T13:04:08.219Z,19.75
2022-10-14T13:06:39.424Z,19.88
2022-10-14T13:09:40.799Z,19.79
2022-10-14T13:12:44.288Z,19.53
2022-10-14T13:15:36.710Z,19.82
2022-10-14T13:18:50.721Z,19.91
2022-10-14T13:21:47.532Z,19.85
2022-10-14T13:24:18.756Z,19.50
2022-10-14T13:26:58.623Z,19.86
2022-10-14T13:29:34.672Z,19.64
2022-10-14T13:32:28.585Z,19.64
2022-10-14T13:35:08.402Z,19.76
2022-10-14T13:37:40.841Z,19.55
2022-10-14T13:40:23.699Z,19.93
2022-10-14T13:42:54.155Z,19.68
2022-10-14T13:45:25.234Z,19.84
2022-10-14T13:47:54.976Z,19.83
2022-10-14T13:50:24.918Z,19.84
2022-10-14T13:52:58.475Z,19.57
2022-10-14T13:55:27.569Z,19.40
2022-10-14T13:58:19.046Z,19.64
2022-10-14T14:00:53.138Z,19.70
2022-10-14T14:03:25.483Z,19.98
2022-10-14T14:05:54.449Z,19.75
2022-10-14T14:08:42.382Z,19.86
2022-10-14T14:11:18.644Z,19.88
2022-10-14T14:13:55.816Z,19.72
2022-10-14T14:16:28.847Z,20.04
2022-10-14T14:19:13.854Z,20.26
2022-10-14T14:21:41.563Z,20.11
2022-10-14T14:24:19.214Z,20.11
2022-10-14T14:26:47.239Z,20.26
2022-10-14T14:29:18.345Z,20.37
2022-10-14T14:34:38.731Z,20.28
2022-10-14T14:39:59.959Z,19.99
2022-10-14T14:42:32.123Z,19.97
2022-10-14T14:45:04.302Z,20.19
2022-10-14T14:47:32.719Z,19.99
2022-10-14T14:50:30.047Z,20.37
2022-10-14T14:52:52.427Z,20.59
2022-10-14T14:55:43.202Z,20.25
2022-10-14T14:58:30.711Z,20.18
2022-10-14T15:00:58.880Z,20.33
2022-10-14T15:03:29.635Z,20.02
2022-10-14T15:06:01.003Z,20.01
2022-10-14T15:08:32.656Z,20.11
2022-10-14T15:11:01.311Z,20.04
2022-10-14T15:13:33.544Z,19.86
2022-10-14T15:16:01.356Z,20.03
2022-10-14T15:18:30.302Z,20.26
2022-10-14T15:21:18.863Z,20.44
2022-10-14T15:24:03.046Z,20.29
2022-10-14T15:26:34.445Z,20.17
2022-10-14T15:32:07.390Z,19.81
2022-10-14T15:34:35.781Z,19.64
2022-10-14T15:37:05.004Z,19.92
2022-10-14T15:39:32.685Z,20.20
2022-10-14T15:42:01.841Z,19.71
2022-10-14T15:44:29.689Z,19.88
2022-10-14T15:47:15.365Z,19.75
2022-10-14T15:49:43.486Z,19.84
2022-10-14T15:52:16.009Z,19.68
2022-10-14T15:54:45.748Z,20.10
2022-10-14T15:57:15.772Z,19.99
2022-10-14T15:59:44.615Z,20.08
2022-10-14T16:02:18.309Z,19.79
2022-10-14T16:05:07.058Z,19.83
2022-10-14T16:07:35.205Z,19.81
2022-10-14T16:10:02.978Z,19.79
2022-10-14T16:12:30.665Z,19.80
2022-10-14T16:14:59.014Z,19.47
2022-10-14T16:17:26.711Z,19.50
2022-10-14T16:19:54.506Z,19.63
2022-10-14T16:22:22.211Z,19.73
2022-10-14T16:24:51.554Z,19.38
2022-10-14T16:27:19.635Z,19.34
2022-10-14T16:29:47.477Z,19.60
2022-10-14T16:32:15.345Z,19.41
2022-10-14T16:34:43.042Z,19.30
2022-10-14T16:37:10.714Z,19.63
2022-10-14T16:39:39.069Z,19.54
2022-10-14T16:42:09.026Z,19.37
2022-10-14T16:44:36.841Z,19.45
2022-10-14T16:47:20.639Z,19.35
2022-10-14T16:49:51.880Z,19.19
2022-10-14T16:52:20.330Z,19.43
2022-10-14T16:54:48.238Z,19.35
2022-10-14T16:57:17.302Z,19.40
2022-10-14T16:59:45.018Z,19.32
2022-10-14T17:02:16.077Z,19.29
2022-10-14T17:04:46.626Z,19.22
2022-10-14T17:07:17.239Z,19.23
2022-10-14T17:09:44.914Z,19.10
2022-10-14T17:12:14.168Z,19.11
2022-10-14T17:14:43.901Z,19.05
2022-10-14T17:17:12.996Z,19.19
2022-10-14T17:19:40.771Z,19.26
2022-10-14T17:22:08.469Z,19.21
2022-10-14T17:24:36.242Z,19.19
2022-10-14T17:27:05.358Z,19.24
2022-10-14T17:29:33.413Z,19.16
2022-10-14T17:32:02.640Z,19.12
2022-10-14T17:34:31.689Z,19.11
2022-10-14T17:37:00.103Z,19.18
2022-10-14T17:39:29.570Z,19.16
2022-10-14T17:41:57.591Z,19.18
2022-10-14T17:44:25.705Z,19.07
2022-10-14T17:46:54.099Z,18.93
2022-10-14T17:49:23.407Z,19.07
2022-10-14T17:51:51.131Z,19.16
2022-10-14T17:54:18.874Z,19.11
2022-10-14T17:56:46.575Z,18.84
2022-10-14T17:59:14.489Z,18.86
2022-10-14T18:04:32.562Z,18.91
2022-10-14T18:07:00.667Z,18.56
2022-10-14T18:09:28.430Z,18.67
2022-10-14T18:12:13.140Z,18.84
2022-10-14T18:14:41.403Z,18.75
2022-10-14T18:17:12.287Z,18.94
2022-10-14T18:19:42.346Z,18.63
2022-10-14T18:22:11.124Z,18.72
2022-10-14T18:24:39.310Z,18.71
2022-10-14T18:27:07.541Z,18.62
2022-10-14T18:29:35.367Z,18.65
2022-10-14T18:32:03.055Z,18.63
2022-10-14T18:34:30.865Z,18.48
2022-10-14T18:36:59.911Z,18.43
2022-10-14T18:39:27.815Z,18.42
2022-10-14T18:41:55.516Z,18.61
2022-10-14T18:44:23.267Z,18.51
2022-10-14T18:46:51.047Z,18.34
2022-10-14T18:49:18.945Z,18.59
2022-10-14T18:51:46.799Z,18.64
2022-10-14T18:54:17.596Z,18.40
2022-10-14T18:56:46.417Z,18.47
2022-10-14T18:59:15.817Z,18.53
2022-10-14T19:01:44.331Z,18.25
2022-10-14T19:04:13.945Z,18.32
2022-10-14T19:06:44.811Z,18.39
2022-10-14T19:09:13.684Z,18.47
2022-10-14T19:11:44.281Z,18.34
2022-10-14T19:14:14.232Z,18.42
2022-10-14T19:16:42.719Z,18.18
2022-10-14T19:19:15.137Z,18.40
2022-10-14T19:21:43.336Z,18.10
2022-10-14T19:24:11.717Z,18.29
2022-10-14T19:26:41.112Z,17.99
2022-10-14T19:29:12.071Z,17.93
2022-10-14T19:31:40.989Z,17.92
2022-10-14T19:34:11.611Z,17.84
2022-10-14T19:36:40.584Z,17.50
2022-10-14T19:39:10.364Z,17.92
2022-10-14T19:41:43.074Z,17.91
2022-10-14T19:44:13.733Z,18.10
2022-10-14T19:46:41.787Z,18.09
2022-10-14T19:49:12.710Z,18.17
2022-10-14T19:51:40.717Z,18.16
2022-10-14T19:54:08.718Z,18.19
2022-10-14T19:56:36.429Z,18.28
2022-10-14T19:59:04.205Z,18.26
2022-10-14T20:01:33.364Z,18.22
2022-10-14T20:04:02.563Z,18.15
2022-10-14T20:06:33.641Z,18.08
2022-10-14T20:09:01.571Z,18.09
2022-10-14T20:11:30.013Z,18.16
2022-10-14T20:13:58.135Z,18.11
2022-10-14T20:16:26.343Z,18.15
2022-10-14T20:18:55.625Z,18.15
2022-10-14T20:21:23.646Z,18.11
2022-10-14T20:23:51.401Z,18.18
2022-10-14T20:26:20.913Z,18.16
2022-10-14T20:28:49.415Z,18.23
2022-10-14T20:31:18.809Z,18.27
2022-10-14T20:33:46.592Z,18.24
2022-10-14T20:36:18.369Z,18.19
2022-10-14T20:38:47.179Z,18.26
2022-10-14T20:41:17.091Z,18.27
2022-10-14T20:43:45.794Z,18.34
2022-10-14T20:46:13.766Z,18.29
2022-10-14T20:48:41.687Z,18.27
2022-10-14T20:51:11.599Z,18.30
2022-10-14T20:56:14.750Z,18.28
2022-10-14T20:58:42.540Z,18.34
2022-10-14T21:01:12.403Z,18.34
2022-10-14T21:03:41.310Z,18.37
2022-10-14T21:06:11.244Z,18.34
2022-10-14T21:08:41.174Z,18.33
2022-10-14T21:11:14.784Z,18.30
2022-10-14T21:13:45.238Z,18.34
2022-10-14T21:16:17.872Z,18.36
2022-10-14T21:18:47.037Z,18.37
2022-10-14T21:21:16.789Z,18.30
2022-10-14T21:23:46.685Z,18.33
2022-10-14T21:26:14.910Z,18.22
2022-10-14T21:28:43.181Z,18.37
2022-10-14T21:31:15.934Z,18.37
2022-10-14T21:33:46.942Z,18.41
2022-10-14T21:36:16.298Z,18.47
2022-10-14T21:38:44.101Z,18.53
2022-10-14T21:41:13.293Z,18.47
2022-10-14T21:43:41.452Z,18.50
2022-10-14T21:46:11.877Z,18.56
2022-10-14T21:48:40.258Z,18.49
2022-10-14T21:51:10.293Z,18.52
2022-10-14T21:53:39.424Z,18.62
2022-10-14T21:56:07.790Z,18.54
2022-10-14T21:58:37.516Z,18.50
2022-10-14T22:01:07.520Z,18.60
2022-10-14T22:03:35.852Z,18.53
2022-10-14T22:06:06.552Z,18.55
2022-10-14T22:08:36.181Z,18.38
2022-10-14T22:11:04.574Z,18.48
2022-10-14T22:13:33.034Z,18.59
2022-10-14T22:16:02.350Z,18.74
2022-10-14T22:18:30.024Z,18.68
2022-10-14T22:21:03.836Z,18.50
2022-10-14T22:23:31.701Z,18.49
2022-10-14T22:26:01.951Z,18.66
2022-10-14T22:28:30.684Z,18.59
2022-10-14T22:31:04.117Z,18.68
2022-10-14T22:33:34.360Z,18.64
2022-10-14T22:36:10.077Z,18.68
2022-10-14T22:38:38.636Z,18.34
2022-10-14T22:41:07.982Z,18.70
2022-10-14T22:43:36.810Z,18.72
2022-10-14T22:46:07.229Z,18.89
2022-10-14T22:48:37.397Z,18.47
2022-10-14T22:51:06.833Z,18.67
2022-10-14T22:53:35.245Z,18.76
2022-10-14T22:56:04.327Z,18.40
2022-10-14T22:58:32.350Z,18.89
2022-10-14T23:01:07.043Z,18.88
2022-10-14T23:03:36.307Z,18.65
2022-10-14T23:06:06.230Z,18.63
2022-10-14T23:08:35.534Z,18.56
2022-10-14T23:11:04.327Z,18.85
2022-10-14T23:13:32.304Z,18.48
2022-10-14T23:16:01.086Z,18.52
2022-10-14T23:18:30.664Z,18.81
2022-10-14T23:20:59.852Z,18.65
2022-10-14T23:23:27.566Z,18.77
2022-10-14T23:25:55.230Z,18.84
2022-10-14T23:28:22.982Z,18.74
2022-10-14T23:30:50.752Z,18.71
2022-10-14T23:33:18.525Z,18.61
2022-10-14T23:35:46.222Z,18.52
2022-10-14T23:38:15.497Z,18.78
2022-10-14T23:40:43.187Z,18.70
2022-10-14T23:43:10.841Z,18.85
2022-10-14T23:45:38.654Z,18.92
2022-10-14T23:48:07.918Z,18.90
2022-10-14T23:50:35.642Z,18.53
2022-10-14T23:53:03.336Z,18.51
2022-10-14T23:55:32.460Z,18.65
2022-10-14T23:58:00.222Z,18.64
